sensor_id;sensor_type;location;lat;lon;timestamp;temperature;humidity
38464;DHT22;24243;51.956;5.902;2023-03-01T00:00:14;18.30;51.90
38464;DHT22;24243;51.956;5.902;2023-03-01T00:02:40;18.30;52.00
38464;DHT22;24243;51.956;5.902;2023-03-01T00:05:06;18.30;52.00
38464;DHT22;24243;51.956;5.902;2023-03-01T00:07:32;18.30;52.00
38464;DHT22;24243;51.956;5.902;2023-03-01T00:09:58;18.30;52.00
38464;DHT22;24243;51.956;5.902;2023-03-01T00:12:23;18.20;52.00
38464;DHT22;24243;51.956;5.902;2023-03-01T00:14:49;18.20;52.00
38464;DHT22;24243;51.956;5.902;2023-03-01T00:17:15;18.20;52.00
38464;DHT22;24243;51.956;5.902;2023-03-01T00:19:40;18.20;52.00
38464;DHT22;24243;51.956;5.902;2023-03-01T00:22:06;18.20;52.00
38464;DHT22;24243;51.956;5.902;2023-03-01T00:24:31;18.10;52.00
38464;DHT22;24243;51.956;5.902;2023-03-01T00:26:57;18.10;51.90
38464;DHT22;24243;51.956;5.902;2023-03-01T00:29:24;18.10;52.00
38464;DHT22;24243;51.956;5.902;2023-03-01T00:31:49;18.10;52.00
38464;DHT22;24243;51.956;5.902;2023-03-01T00:34:15;18.10;52.00
38464;DHT22;24243;51.956;5.902;2023-03-01T00:36:41;18.10;52.00
38464;DHT22;24243;51.956;5.902;2023-03-01T00:39:09;18.00;51.90
38464;DHT22;24243;51.956;5.902;2023-03-01T00:41:36;18.00;52.00
38464;DHT22;24243;51.956;5.902;2023-03-01T00:44:01;18.00;51.90
38464;DHT22;24243;51.956;5.902;2023-03-01T00:46:27;18.00;51.90
38464;DHT22;24243;51.956;5.902;2023-03-01T00:48:55;18.00;51.90
38464;DHT22;24243;51.956;5.902;2023-03-01T00:51:24;18.00;51.90
38464;DHT22;24243;51.956;5.902;2023-03-01T00:53:51;18.00;51.90
38464;DHT22;24243;51.956;5.902;2023-03-01T00:56:17;18.00;51.90
38464;DHT22;24243;51.956;5.902;2023-03-01T00:58:42;18.00;51.90
38464;DHT22;24243;51.956;5.902;2023-03-01T01:01:16;17.90;51.80
38464;DHT22;24243;51.956;5.902;2023-03-01T01:03:48;18.00;51.90
38464;DHT22;24243;51.956;5.902;2023-03-01T01:06:15;17.90;51.80
38464;DHT22;24243;51.956;5.902;2023-03-01T01:08:41;17.90;51.80
38464;DHT22;24243;51.956;5.902;2023-03-01T01:11:08;17.90;51.80
38464;DHT22;24243;51.956;5.902;2023-03-01T01:13:33;17.90;51.80
38464;DHT22;24243;51.956;5.902;2023-03-01T01:16:03;17.90;51.80
38464;DHT22;24243;51.956;5.902;2023-03-01T01:18:28;17.90;51.80
38464;DHT22;24243;51.956;5.902;2023-03-01T01:20:54;17.90;51.80
38464;DHT22;24243;51.956;5.902;2023-03-01T01:23:19;17.80;51.80
38464;DHT22;24243;51.956;5.902;2023-03-01T01:25:46;17.80;51.80
38464;DHT22;24243;51.956;5.902;2023-03-01T01:28:11;17.80;51.80
38464;DHT22;24243;51.956;5.902;2023-03-01T01:30:37;17.80;51.80
38464;DHT22;24243;51.956;5.902;2023-03-01T01:33:02;17.80;51.80
38464;DHT22;24243;51.956;5.902;2023-03-01T01:35:28;17.80;51.80
38464;DHT22;24243;51.956;5.902;2023-03-01T01:37:54;17.80;51.80
38464;DHT22;24243;51.956;5.902;2023-03-01T01:40:19;17.70;51.80
38464;DHT22;24243;51.956;5.902;2023-03-01T01:42:45;17.70;51.80
38464;DHT22;24243;51.956;5.902;2023-03-01T01:47:55;17.70;51.80
38464;DHT22;24243;51.956;5.902;2023-03-01T01:50:22;17.70;51.80
38464;DHT22;24243;51.956;5.902;2023-03-01T01:52:48;17.60;51.70
38464;DHT22;24243;51.956;5.902;2023-03-01T01:55:16;17.70;51.80
38464;DHT22;24243;51.956;5.902;2023-03-01T01:57:43;17.60;51.80
38464;DHT22;24243;51.956;5.902;2023-03-01T02:00:12;17.60;51.80
38464;DHT22;24243;51.956;5.902;2023-03-01T02:02:38;17.60;51.80
38464;DHT22;24243;51.956;5.902;2023-03-01T02:05:06;17.60;51.80
38464;DHT22;24243;51.956;5.902;2023-03-01T02:07:35;17.60;52.40
38464;DHT22;24243;51.956;5.902;2023-03-01T02:10:02;17.60;51.80
38464;DHT22;24243;51.956;5.902;2023-03-01T02:12:28;17.60;51.80
38464;DHT22;24243;51.956;5.902;2023-03-01T02:14:54;17.60;51.80
38464;DHT22;24243;51.956;5.902;2023-03-01T02:17:20;17.60;51.80
38464;DHT22;24243;51.956;5.902;2023-03-01T02:22:32;17.50;51.70
38464;DHT22;24243;51.956;5.902;2023-03-01T02:30:28;17.50;51.80
38464;DHT22;24243;51.956;5.902;2023-03-01T02:32:55;17.50;51.70
38464;DHT22;24243;51.956;5.902;2023-03-01T02:35:28;17.50;51.80
38464;DHT22;24243;51.956;5.902;2023-03-01T02:37:56;17.50;51.70
38464;DHT22;24243;51.956;5.902;2023-03-01T02:40:22;17.50;51.80
38464;DHT22;24243;51.956;5.902;2023-03-01T02:42:55;17.50;51.80
38464;DHT22;24243;51.956;5.902;2023-03-01T02:45:21;17.40;51.70
38464;DHT22;24243;51.956;5.902;2023-03-01T02:47:48;17.40;51.70
38464;DHT22;24243;51.956;5.902;2023-03-01T02:52:54;17.40;51.70
38464;DHT22;24243;51.956;5.902;2023-03-01T02:55:21;17.40;51.70
38464;DHT22;24243;51.956;5.902;2023-03-01T02:57:46;17.40;51.70
38464;DHT22;24243;51.956;5.902;2023-03-01T03:00:28;17.40;51.80
38464;DHT22;24243;51.956;5.902;2023-03-01T03:02:54;17.40;51.80
38464;DHT22;24243;51.956;5.902;2023-03-01T03:05:25;17.40;51.70
38464;DHT22;24243;51.956;5.902;2023-03-01T03:07:51;17.40;51.70
38464;DHT22;24243;51.956;5.902;2023-03-01T03:10:21;17.30;51.70
38464;DHT22;24243;51.956;5.902;2023-03-01T03:12:50;17.30;51.70
38464;DHT22;24243;51.956;5.902;2023-03-01T03:15:17;17.30;51.70
38464;DHT22;24243;51.956;5.902;2023-03-01T03:17:43;17.30;51.70
38464;DHT22;24243;51.956;5.902;2023-03-01T03:20:09;17.30;52.30
38464;DHT22;24243;51.956;5.902;2023-03-01T03:22:39;17.30;51.70
38464;DHT22;24243;51.956;5.902;2023-03-01T03:25:06;17.30;51.70
38464;DHT22;24243;51.956;5.902;2023-03-01T03:27:39;17.30;51.70
38464;DHT22;24243;51.956;5.902;2023-03-01T03:30:05;17.20;51.70
38464;DHT22;24243;51.956;5.902;2023-03-01T03:32:41;17.30;51.70
38464;DHT22;24243;51.956;5.902;2023-03-01T03:35:09;17.20;51.70
38464;DHT22;24243;51.956;5.902;2023-03-01T03:37:36;17.20;51.70
38464;DHT22;24243;51.956;5.902;2023-03-01T03:40:20;17.20;51.70
38464;DHT22;24243;51.956;5.902;2023-03-01T03:42:45;17.20;51.70
38464;DHT22;24243;51.956;5.902;2023-03-01T03:45:11;17.20;51.70
38464;DHT22;24243;51.956;5.902;2023-03-01T03:47:36;17.20;51.70
38464;DHT22;24243;51.956;5.902;2023-03-01T03:50:02;17.20;51.70
38464;DHT22;24243;51.956;5.902;2023-03-01T03:52:27;17.20;51.70
38464;DHT22;24243;51.956;5.902;2023-03-01T03:54:53;17.10;51.60
38464;DHT22;24243;51.956;5.902;2023-03-01T03:57:18;17.10;51.60
38464;DHT22;24243;51.956;5.902;2023-03-01T03:59:44;17.10;51.60
38464;DHT22;24243;51.956;5.902;2023-03-01T04:02:10;17.10;51.70
38464;DHT22;24243;51.956;5.902;2023-03-01T04:04:35;17.10;51.70
38464;DHT22;24243;51.956;5.902;2023-03-01T04:07:01;17.10;51.60
38464;DHT22;24243;51.956;5.902;2023-03-01T04:09:26;17.10;51.70
38464;DHT22;24243;51.956;5.902;2023-03-01T04:11:52;17.10;51.60
38464;DHT22;24243;51.956;5.902;2023-03-01T04:14:18;17.10;51.70
38464;DHT22;24243;51.956;5.902;2023-03-01T04:16:43;17.10;51.70
38464;DHT22;24243;51.956;5.902;2023-03-01T04:19:09;17.10;51.70
38464;DHT22;24243;51.956;5.902;2023-03-01T04:21:34;17.10;51.70
38464;DHT22;24243;51.956;5.902;2023-03-01T04:24:01;17.00;51.60
38464;DHT22;24243;51.956;5.902;2023-03-01T04:26:28;17.00;51.60
38464;DHT22;24243;51.956;5.902;2023-03-01T04:28:54;17.00;51.60
38464;DHT22;24243;51.956;5.902;2023-03-01T04:31:20;17.00;51.60
38464;DHT22;24243;51.956;5.902;2023-03-01T04:36:12;17.00;51.60
38464;DHT22;24243;51.956;5.902;2023-03-01T04:38:38;17.00;51.70
38464;DHT22;24243;51.956;5.902;2023-03-01T04:41:08;17.00;51.70
38464;DHT22;24243;51.956;5.902;2023-03-01T04:43:34;17.00;51.60
38464;DHT22;24243;51.956;5.902;2023-03-01T04:46:01;17.00;51.70
38464;DHT22;24243;51.956;5.902;2023-03-01T04:48:28;17.00;51.70
38464;DHT22;24243;51.956;5.902;2023-03-01T04:50:54;17.00;51.60
38464;DHT22;24243;51.956;5.902;2023-03-01T04:53:19;16.90;51.60
38464;DHT22;24243;51.956;5.902;2023-03-01T04:55:45;16.90;51.60
38464;DHT22;24243;51.956;5.902;2023-03-01T04:58:10;16.90;51.60
38464;DHT22;24243;51.956;5.902;2023-03-01T05:00:36;16.90;51.60
38464;DHT22;24243;51.956;5.902;2023-03-01T05:03:02;16.90;51.60
38464;DHT22;24243;51.956;5.902;2023-03-01T05:07:53;16.90;51.60
38464;DHT22;24243;51.956;5.902;2023-03-01T05:10:19;16.90;51.60
38464;DHT22;24243;51.956;5.902;2023-03-01T05:12:45;16.90;51.60
38464;DHT22;24243;51.956;5.902;2023-03-01T05:15:12;16.90;51.60
38464;DHT22;24243;51.956;5.902;2023-03-01T05:17:37;16.90;51.60
38464;DHT22;24243;51.956;5.902;2023-03-01T05:20:03;16.90;51.60
38464;DHT22;24243;51.956;5.902;2023-03-01T05:22:33;16.90;51.60
38464;DHT22;24243;51.956;5.902;2023-03-01T05:24:59;16.90;51.60
38464;DHT22;24243;51.956;5.902;2023-03-01T05:27:24;16.90;51.60
38464;DHT22;24243;51.956;5.902;2023-03-01T05:29:50;16.80;51.50
38464;DHT22;24243;51.956;5.902;2023-03-01T05:32:15;16.80;51.50
38464;DHT22;24243;51.956;5.902;2023-03-01T05:34:41;16.80;51.50
38464;DHT22;24243;51.956;5.902;2023-03-01T05:37:07;16.80;51.50
38464;DHT22;24243;51.956;5.902;2023-03-01T05:39:33;16.80;51.60
38464;DHT22;24243;51.956;5.902;2023-03-01T05:41:59;16.80;51.60
38464;DHT22;24243;51.956;5.902;2023-03-01T05:44:25;16.80;51.60
38464;DHT22;24243;51.956;5.902;2023-03-01T05:46:51;16.80;51.60
38464;DHT22;24243;51.956;5.902;2023-03-01T05:49:17;16.80;51.60
38464;DHT22;24243;51.956;5.902;2023-03-01T05:51:47;16.80;51.60
38464;DHT22;24243;51.956;5.902;2023-03-01T05:54:12;16.80;51.60
38464;DHT22;24243;51.956;5.902;2023-03-01T05:56:38;16.80;51.60
38464;DHT22;24243;51.956;5.902;2023-03-01T05:59:04;16.70;51.50
38464;DHT22;24243;51.956;5.902;2023-03-01T06:01:33;16.80;51.60
38464;DHT22;24243;51.956;5.902;2023-03-01T06:03:59;16.80;52.20
38464;DHT22;24243;51.956;5.902;2023-03-01T06:06:24;16.80;51.60
38464;DHT22;24243;51.956;5.902;2023-03-01T06:08:50;16.70;51.50
38464;DHT22;24243;51.956;5.902;2023-03-01T06:11:16;16.70;51.50
38464;DHT22;24243;51.956;5.902;2023-03-01T06:13:42;16.70;51.60
38464;DHT22;24243;51.956;5.902;2023-03-01T06:16:08;16.70;51.60
38464;DHT22;24243;51.956;5.902;2023-03-01T06:18:34;16.70;51.60
38464;DHT22;24243;51.956;5.902;2023-03-01T06:21:00;16.70;51.60
38464;DHT22;24243;51.956;5.902;2023-03-01T06:23:25;16.70;51.60
38464;DHT22;24243;51.956;5.902;2023-03-01T06:25:51;16.70;51.60
38464;DHT22;24243;51.956;5.902;2023-03-01T06:28:17;16.60;51.50
38464;DHT22;24243;51.956;5.902;2023-03-01T06:30:42;16.60;51.60
38464;DHT22;24243;51.956;5.902;2023-03-01T06:33:08;16.60;51.60
38464;DHT22;24243;51.956;5.902;2023-03-01T06:35:54;16.60;51.60
38464;DHT22;24243;51.956;5.902;2023-03-01T06:38:19;16.60;51.60
38464;DHT22;24243;51.956;5.902;2023-03-01T06:41:00;16.60;51.50
38464;DHT22;24243;51.956;5.902;2023-03-01T06:43:26;16.60;51.50
38464;DHT22;24243;51.956;5.902;2023-03-01T06:45:51;16.60;51.50
38464;DHT22;24243;51.956;5.902;2023-03-01T06:48:17;16.60;51.50
38464;DHT22;24243;51.956;5.902;2023-03-01T06:50:43;16.60;51.50
38464;DHT22;24243;51.956;5.902;2023-03-01T06:53:08;16.60;51.50
38464;DHT22;24243;51.956;5.902;2023-03-01T06:55:58;16.60;52.10
38464;DHT22;24243;51.956;5.902;2023-03-01T06:58:25;16.50;51.50
38464;DHT22;24243;51.956;5.902;2023-03-01T07:01:10;16.60;51.50
38464;DHT22;24243;51.956;5.902;2023-03-01T07:03:35;16.50;51.40
38464;DHT22;24243;51.956;5.902;2023-03-01T07:06:20;16.60;51.50
38464;DHT22;24243;51.956;5.902;2023-03-01T07:08:45;16.60;51.50
38464;DHT22;24243;51.956;5.902;2023-03-01T07:11:30;16.60;52.10
38464;DHT22;24243;51.956;5.902;2023-03-01T07:14:14;16.60;51.40
38464;DHT22;24243;51.956;5.902;2023-03-01T07:16:40;16.70;51.30
38464;DHT22;24243;51.956;5.902;2023-03-01T07:19:06;16.70;51.20
38464;DHT22;24243;51.956;5.902;2023-03-01T07:21:31;16.70;51.20
38464;DHT22;24243;51.956;5.902;2023-03-01T07:23:57;16.70;51.10
38464;DHT22;24243;51.956;5.902;2023-03-01T07:26:22;16.80;51.10
38464;DHT22;24243;51.956;5.902;2023-03-01T07:28:48;16.90;51.10
38464;DHT22;24243;51.956;5.902;2023-03-01T07:31:13;17.00;50.90
38464;DHT22;24243;51.956;5.902;2023-03-01T07:33:39;17.30;50.60
38464;DHT22;24243;51.956;5.902;2023-03-01T07:36:05;17.40;50.20
38464;DHT22;24243;51.956;5.902;2023-03-01T07:38:31;17.60;50.00
38464;DHT22;24243;51.956;5.902;2023-03-01T07:40:58;17.70;49.80
38464;DHT22;24243;51.956;5.902;2023-03-01T07:43:24;17.80;49.80
38464;DHT22;24243;51.956;5.902;2023-03-01T07:45:50;17.90;49.70
38464;DHT22;24243;51.956;5.902;2023-03-01T07:48:15;18.00;49.70
38464;DHT22;24243;51.956;5.902;2023-03-01T07:50:41;18.10;49.70
38464;DHT22;24243;51.956;5.902;2023-03-01T07:53:06;18.10;49.70
38464;DHT22;24243;51.956;5.902;2023-03-01T07:55:32;18.10;49.80
38464;DHT22;24243;51.956;5.902;2023-03-01T07:57:58;18.10;49.90
38464;DHT22;24243;51.956;5.902;2023-03-01T08:00:23;18.10;49.90
38464;DHT22;24243;51.956;5.902;2023-03-01T08:02:49;18.20;50.00
38464;DHT22;24243;51.956;5.902;2023-03-01T08:05:14;18.20;50.00
38464;DHT22;24243;51.956;5.902;2023-03-01T08:07:40;18.20;50.00
38464;DHT22;24243;51.956;5.902;2023-03-01T08:10:06;18.20;50.00
38464;DHT22;24243;51.956;5.902;2023-03-01T08:12:31;18.20;50.00
38464;DHT22;24243;51.956;5.902;2023-03-01T08:14:57;18.30;50.00
38464;DHT22;24243;51.956;5.902;2023-03-01T08:17:23;18.30;50.00
38464;DHT22;24243;51.956;5.902;2023-03-01T08:19:48;18.30;50.00
38464;DHT22;24243;51.956;5.902;2023-03-01T08:22:14;18.40;50.00
38464;DHT22;24243;51.956;5.902;2023-03-01T08:24:39;18.40;50.00
38464;DHT22;24243;51.956;5.902;2023-03-01T08:27:08;18.50;50.60
38464;DHT22;24243;51.956;5.902;2023-03-01T08:29:34;18.50;49.90
38464;DHT22;24243;51.956;5.902;2023-03-01T08:31:59;18.50;49.90
38464;DHT22;24243;51.956;5.902;2023-03-01T08:34:25;18.60;49.90
38464;DHT22;24243;51.956;5.902;2023-03-01T08:36:51;18.60;49.80
38464;DHT22;24243;51.956;5.902;2023-03-01T08:39:17;18.60;49.80
38464;DHT22;24243;51.956;5.902;2023-03-01T08:41:44;18.70;49.80
38464;DHT22;24243;51.956;5.902;2023-03-01T08:44:11;18.70;49.70
38464;DHT22;24243;51.956;5.902;2023-03-01T08:46:38;18.70;49.70
38464;DHT22;24243;51.956;5.902;2023-03-01T08:49:07;18.80;49.70
38464;DHT22;24243;51.956;5.902;2023-03-01T08:51:33;18.80;49.60
38464;DHT22;24243;51.956;5.902;2023-03-01T08:54:05;18.90;49.60
38464;DHT22;24243;51.956;5.902;2023-03-01T08:56:31;18.90;49.50
38464;DHT22;24243;51.956;5.902;2023-03-01T08:58:57;18.90;49.50
38464;DHT22;24243;51.956;5.902;2023-03-01T09:01:22;18.90;49.50
38464;DHT22;24243;51.956;5.902;2023-03-01T09:03:48;19.00;49.50
38464;DHT22;24243;51.956;5.902;2023-03-01T09:06:14;19.10;49.40
38464;DHT22;24243;51.956;5.902;2023-03-01T09:08:41;19.10;49.30
38464;DHT22;24243;51.956;5.902;2023-03-01T09:11:07;19.20;49.30
38464;DHT22;24243;51.956;5.902;2023-03-01T09:13:33;19.20;49.30
38464;DHT22;24243;51.956;5.902;2023-03-01T09:16:00;19.30;49.30
38464;DHT22;24243;51.956;5.902;2023-03-01T09:18:26;19.30;49.20
38464;DHT22;24243;51.956;5.902;2023-03-01T09:20:52;19.40;49.10
38464;DHT22;24243;51.956;5.902;2023-03-01T09:23:20;19.50;49.10
38464;DHT22;24243;51.956;5.902;2023-03-01T09:25:46;19.50;49.10
38464;DHT22;24243;51.956;5.902;2023-03-01T09:28:12;19.60;49.10
38464;DHT22;24243;51.956;5.902;2023-03-01T09:30:37;19.60;49.00
38464;DHT22;24243;51.956;5.902;2023-03-01T09:33:03;19.60;49.00
38464;DHT22;24243;51.956;5.902;2023-03-01T09:35:28;19.60;49.00
38464;DHT22;24243;51.956;5.902;2023-03-01T09:37:54;19.70;49.00
38464;DHT22;24243;51.956;5.902;2023-03-01T09:40:21;19.70;49.00
38464;DHT22;24243;51.956;5.902;2023-03-01T09:42:52;19.70;49.70
38464;DHT22;24243;51.956;5.902;2023-03-01T09:45:21;19.70;49.00
38464;DHT22;24243;51.956;5.902;2023-03-01T09:47:49;19.80;49.10
38464;DHT22;24243;51.956;5.902;2023-03-01T09:50:18;19.80;49.00
38464;DHT22;24243;51.956;5.902;2023-03-01T09:52:50;19.80;49.00
38464;DHT22;24243;51.956;5.902;2023-03-01T09:55:27;19.90;48.90
38464;DHT22;24243;51.956;5.902;2023-03-01T09:57:55;19.90;48.90
38464;DHT22;24243;51.956;5.902;2023-03-01T10:00:35;20.00;48.90
38464;DHT22;24243;51.956;5.902;2023-03-01T10:03:13;20.00;48.80
38464;DHT22;24243;51.956;5.902;2023-03-01T10:08:19;20.10;48.90
38464;DHT22;24243;51.956;5.902;2023-03-01T10:10:49;20.10;48.90
38464;DHT22;24243;51.956;5.902;2023-03-01T10:15:43;20.10;48.80
38464;DHT22;24243;51.956;5.902;2023-03-01T10:18:19;20.10;48.80
38464;DHT22;24243;51.956;5.902;2023-03-01T10:23:11;20.20;48.80
38464;DHT22;24243;51.956;5.902;2023-03-01T10:28:20;20.20;48.80
38464;DHT22;24243;51.956;5.902;2023-03-01T10:30:47;20.30;48.80
38464;DHT22;24243;51.956;5.902;2023-03-01T10:33:20;20.30;48.80
38464;DHT22;24243;51.956;5.902;2023-03-01T10:35:47;20.30;48.80
38464;DHT22;24243;51.956;5.902;2023-03-01T10:38:14;20.20;48.70
38464;DHT22;24243;51.956;5.902;2023-03-01T10:43:45;20.30;48.80
38464;DHT22;24243;51.956;5.902;2023-03-01T10:51:33;20.30;48.80
38464;DHT22;24243;51.956;5.902;2023-03-01T10:53:58;20.30;48.80
38464;DHT22;24243;51.956;5.902;2023-03-01T10:56:24;20.30;48.80
38464;DHT22;24243;51.956;5.902;2023-03-01T10:59:01;20.30;48.80
38464;DHT22;24243;51.956;5.902;2023-03-01T11:01:28;20.30;48.80
38464;DHT22;24243;51.956;5.902;2023-03-01T11:04:16;20.30;48.80
38464;DHT22;24243;51.956;5.902;2023-03-01T11:06:43;20.30;48.80
38464;DHT22;24243;51.956;5.902;2023-03-01T11:09:20;20.30;48.90
38464;DHT22;24243;51.956;5.902;2023-03-01T11:11:46;20.30;48.80
38464;DHT22;24243;51.956;5.902;2023-03-01T11:14:20;20.30;48.80
38464;DHT22;24243;51.956;5.902;2023-03-01T11:16:47;20.30;48.80
38464;DHT22;24243;51.956;5.902;2023-03-01T11:19:15;20.30;48.80
38464;DHT22;24243;51.956;5.902;2023-03-01T11:21:51;20.40;48.80
38464;DHT22;24243;51.956;5.902;2023-03-01T11:24:18;20.30;48.70
38464;DHT22;24243;51.956;5.902;2023-03-01T11:26:45;20.40;48.70
38464;DHT22;24243;51.956;5.902;2023-03-01T11:29:33;20.40;48.70
38464;DHT22;24243;51.956;5.902;2023-03-01T11:32:01;20.40;48.60
38464;DHT22;24243;51.956;5.902;2023-03-01T11:37:21;20.50;48.60
38464;DHT22;24243;51.956;5.902;2023-03-01T11:39:52;20.50;48.60
38464;DHT22;24243;51.956;5.902;2023-03-01T11:42:24;20.50;48.60
38464;DHT22;24243;51.956;5.902;2023-03-01T11:44:54;20.50;48.60
38464;DHT22;24243;51.956;5.902;2023-03-01T11:52:48;20.70;48.40
38464;DHT22;24243;51.956;5.902;2023-03-01T12:00:53;20.70;48.40
38464;DHT22;24243;51.956;5.902;2023-03-01T12:03:26;20.70;48.50
38464;DHT22;24243;51.956;5.902;2023-03-01T12:06:05;20.60;48.50
38464;DHT22;24243;51.956;5.902;2023-03-01T12:11:16;20.60;48.50
38464;DHT22;24243;51.956;5.902;2023-03-01T12:29:00;20.50;48.60
38464;DHT22;24243;51.956;5.902;2023-03-01T12:42:28;20.30;48.50
38464;DHT22;24243;51.956;5.902;2023-03-01T12:47:26;20.30;48.40
38464;DHT22;24243;51.956;5.902;2023-03-01T12:49:57;20.30;48.40
38464;DHT22;24243;51.956;5.902;2023-03-01T12:54:51;20.30;48.40
38464;DHT22;24243;51.956;5.902;2023-03-01T12:57:20;20.30;48.40
38464;DHT22;24243;51.956;5.902;2023-03-01T13:04:50;20.20;48.40
38464;DHT22;24243;51.956;5.902;2023-03-01T13:14:59;20.10;48.30
38464;DHT22;24243;51.956;5.902;2023-03-01T13:17:29;20.10;48.20
38464;DHT22;24243;51.956;5.902;2023-03-01T13:19:56;20.10;48.20
38464;DHT22;24243;51.956;5.902;2023-03-01T13:22:26;20.10;48.20
38464;DHT22;24243;51.956;5.902;2023-03-01T13:25:00;20.10;48.20
38464;DHT22;24243;51.956;5.902;2023-03-01T13:27:26;20.10;48.20
38464;DHT22;24243;51.956;5.902;2023-03-01T13:29:55;20.10;48.20
38464;DHT22;24243;51.956;5.902;2023-03-01T13:32:25;20.10;48.10
38464;DHT22;24243;51.956;5.902;2023-03-01T13:34:57;20.10;48.10
38464;DHT22;24243;51.956;5.902;2023-03-01T13:37:24;20.10;48.10
38464;DHT22;24243;51.956;5.902;2023-03-01T13:39:51;20.00;48.10
38464;DHT22;24243;51.956;5.902;2023-03-01T13:42:37;20.00;48.10
38464;DHT22;24243;51.956;5.902;2023-03-01T13:45:04;20.00;48.10
38464;DHT22;24243;51.956;5.902;2023-03-01T13:47:30;20.00;48.10
38464;DHT22;24243;51.956;5.902;2023-03-01T13:49:59;20.00;48.10
38464;DHT22;24243;51.956;5.902;2023-03-01T13:52:36;20.00;48.10
38464;DHT22;24243;51.956;5.902;2023-03-01T13:55:03;19.90;48.00
38464;DHT22;24243;51.956;5.902;2023-03-01T13:57:37;19.90;48.00
38464;DHT22;24243;51.956;5.902;2023-03-01T14:00:04;19.90;48.10
38464;DHT22;24243;51.956;5.902;2023-03-01T14:02:30;19.90;48.10
38464;DHT22;24243;51.956;5.902;2023-03-01T14:04:59;19.80;48.10
38464;DHT22;24243;51.956;5.902;2023-03-01T14:07:25;19.80;48.10
38464;DHT22;24243;51.956;5.902;2023-03-01T14:09:55;19.80;48.10
38464;DHT22;24243;51.956;5.902;2023-03-01T14:20:11;19.60;48.20
38464;DHT22;24243;51.956;5.902;2023-03-01T14:22:37;19.60;48.20
38464;DHT22;24243;51.956;5.902;2023-03-01T14:25:15;19.60;48.20
38464;DHT22;24243;51.956;5.902;2023-03-01T14:27:42;19.50;48.20
38464;DHT22;24243;51.956;5.902;2023-03-01T14:30:13;19.50;48.30
38464;DHT22;24243;51.956;5.902;2023-03-01T14:32:39;19.50;48.30
38464;DHT22;24243;51.956;5.902;2023-03-01T14:35:22;19.40;48.20
38464;DHT22;24243;51.956;5.902;2023-03-01T14:37:48;19.40;48.30
38464;DHT22;24243;51.956;5.902;2023-03-01T14:40:22;19.40;48.30
38464;DHT22;24243;51.956;5.902;2023-03-01T14:42:49;19.30;48.20
38464;DHT22;24243;51.956;5.902;2023-03-01T14:45:14;19.30;48.20
38464;DHT22;24243;51.956;5.902;2023-03-01T14:47:40;19.30;48.20
38464;DHT22;24243;51.956;5.902;2023-03-01T14:50:09;19.30;48.20
38464;DHT22;24243;51.956;5.902;2023-03-01T14:52:39;19.30;48.20
38464;DHT22;24243;51.956;5.902;2023-03-01T14:55:06;19.20;48.20
38464;DHT22;24243;51.956;5.902;2023-03-01T14:57:32;19.20;48.20
38464;DHT22;24243;51.956;5.902;2023-03-01T14:59:58;19.20;48.20
38464;DHT22;24243;51.956;5.902;2023-03-01T15:02:26;19.20;48.20
38464;DHT22;24243;51.956;5.902;2023-03-01T15:04:54;19.20;48.20
38464;DHT22;24243;51.956;5.902;2023-03-01T15:07:22;19.20;48.10
38464;DHT22;24243;51.956;5.902;2023-03-01T15:09:48;19.20;48.20
38464;DHT22;24243;51.956;5.902;2023-03-01T15:14:58;19.20;48.10
38464;DHT22;24243;51.956;5.902;2023-03-01T15:19:55;19.20;48.10
38464;DHT22;24243;51.956;5.902;2023-03-01T15:22:21;19.20;48.10
38464;DHT22;24243;51.956;5.902;2023-03-01T15:24:48;19.20;48.10
38464;DHT22;24243;51.956;5.902;2023-03-01T15:27:18;19.20;48.10
38464;DHT22;24243;51.956;5.902;2023-03-01T15:29:52;19.20;48.10
38464;DHT22;24243;51.956;5.902;2023-03-01T15:32:31;19.20;48.10
38464;DHT22;24243;51.956;5.902;2023-03-01T15:34:58;19.20;48.10
38464;DHT22;24243;51.956;5.902;2023-03-01T15:40:18;19.20;48.10
38464;DHT22;24243;51.956;5.902;2023-03-01T15:42:44;19.20;48.10
38464;DHT22;24243;51.956;5.902;2023-03-01T15:47:40;19.20;48.00
38464;DHT22;24243;51.956;5.902;2023-03-01T15:50:13;19.10;48.00
38464;DHT22;24243;51.956;5.902;2023-03-01T15:52:41;19.20;48.00
38464;DHT22;24243;51.956;5.902;2023-03-01T15:55:15;19.20;48.00
38464;DHT22;24243;51.956;5.902;2023-03-01T15:57:41;19.20;48.00
38464;DHT22;24243;51.956;5.902;2023-03-01T16:00:10;19.20;48.00
38464;DHT22;24243;51.956;5.902;2023-03-01T16:02:39;19.20;48.10
38464;DHT22;24243;51.956;5.902;2023-03-01T16:05:05;19.20;48.10
38464;DHT22;24243;51.956;5.902;2023-03-01T16:07:31;19.20;48.10
38464;DHT22;24243;51.956;5.902;2023-03-01T16:09:57;19.10;48.00
38464;DHT22;24243;51.956;5.902;2023-03-01T16:12:22;19.20;48.10
38464;DHT22;24243;51.956;5.902;2023-03-01T16:14:49;19.20;48.10
38464;DHT22;24243;51.956;5.902;2023-03-01T16:17:15;19.20;48.10
38464;DHT22;24243;51.956;5.902;2023-03-01T16:19:40;19.20;48.20
38464;DHT22;24243;51.956;5.902;2023-03-01T16:22:06;19.10;48.10
38464;DHT22;24243;51.956;5.902;2023-03-01T16:24:32;19.10;48.10
38464;DHT22;24243;51.956;5.902;2023-03-01T16:26:58;19.10;48.10
38464;DHT22;24243;51.956;5.902;2023-03-01T16:29:23;19.10;48.20
38464;DHT22;24243;51.956;5.902;2023-03-01T16:31:49;19.10;48.20
38464;DHT22;24243;51.956;5.902;2023-03-01T16:34:14;19.10;48.20
38464;DHT22;24243;51.956;5.902;2023-03-01T16:36:40;19.10;48.20
38464;DHT22;24243;51.956;5.902;2023-03-01T16:39:08;19.10;48.20
38464;DHT22;24243;51.956;5.902;2023-03-01T16:41:34;19.10;48.20
38464;DHT22;24243;51.956;5.902;2023-03-01T16:44:00;19.10;48.20
38464;DHT22;24243;51.956;5.902;2023-03-01T16:46:27;19.10;48.20
38464;DHT22;24243;51.956;5.902;2023-03-01T16:48:55;19.10;48.20
38464;DHT22;24243;51.956;5.902;2023-03-01T16:51:22;19.10;48.20
38464;DHT22;24243;51.956;5.902;2023-03-01T16:53:48;19.10;48.30
38464;DHT22;24243;51.956;5.902;2023-03-01T16:56:14;19.10;48.20
38464;DHT22;24243;51.956;5.902;2023-03-01T16:58:40;19.10;48.30
38464;DHT22;24243;51.956;5.902;2023-03-01T17:01:07;19.10;48.20
38464;DHT22;24243;51.956;5.902;2023-03-01T17:03:32;19.10;48.30
38464;DHT22;24243;51.956;5.902;2023-03-01T17:06:01;19.10;48.20
38464;DHT22;24243;51.956;5.902;2023-03-01T17:08:26;19.10;48.30
38464;DHT22;24243;51.956;5.902;2023-03-01T17:10:52;19.10;48.30
38464;DHT22;24243;51.956;5.902;2023-03-01T17:13:17;19.10;48.30
38464;DHT22;24243;51.956;5.902;2023-03-01T17:15:43;19.10;48.30
38464;DHT22;24243;51.956;5.902;2023-03-01T17:18:09;19.10;48.40
38464;DHT22;24243;51.956;5.902;2023-03-01T17:20:35;19.00;48.30
38464;DHT22;24243;51.956;5.902;2023-03-01T17:23:01;19.10;48.40
38464;DHT22;24243;51.956;5.902;2023-03-01T17:25:27;19.10;48.50
38464;DHT22;24243;51.956;5.902;2023-03-01T17:27:52;19.10;48.40